Time;durP1;ratioP1;P1;durP2;ratioP2;P2;SDS_P1;SDS_P2;PMS_P1;PMS_P2;Temp;Humidity;BMP_temperature;BMP_pressure;BME280_temperature;BME280_humidity;BME280_pressure;Samples;Min_cycle;Max_cycle;Signal;HPM_P1;HPM_P2
2023/10/27 00:01:05;;;;;;;26.88;20.65;;;10.60;99.90;;;;;;4996478;28;20046;-80
2023/10/27 00:03:31;;;;;;;31.15;21.80;;;10.60;99.90;;;;;;5028694;28;20046;-80
2023/10/27 00:05:57;;;;;;;26.65;19.90;;;10.60;99.90;;;;;;5006983;28;20054;-80
2023/10/27 00:08:22;;;;;;;28.88;21.05;;;10.60;99.90;;;;;;5002745;28;20132;-80
2023/10/27 00:10:48;;;;;;;28.38;19.65;;;10.50;99.90;;;;;;5012160;28;20054;-80
2023/10/27 00:13:14;;;;;;;27.83;20.88;;;10.50;99.90;;;;;;4994526;28;20516;-80
2023/10/27 00:15:40;;;;;;;28.35;21.23;;;10.50;99.90;;;;;;4999000;28;20049;-80
2023/10/27 00:18:05;;;;;;;30.73;21.45;;;10.50;99.90;;;;;;5003731;28;20502;-80
2023/10/27 00:20:31;;;;;;;28.88;21.75;;;10.50;99.90;;;;;;5012874;28;20046;-80
2023/10/27 00:22:57;;;;;;;28.00;21.30;;;10.50;99.90;;;;;;4990884;28;20042;-80
2023/10/27 00:25:24;;;;;;;27.02;20.15;;;10.50;99.90;;;;;;5016153;28;20126;-80
2023/10/27 00:27:50;;;;;;;28.73;20.50;;;10.50;99.90;;;;;;4996467;28;20528;-80
2023/10/27 00:30:17;;;;;;;29.70;20.80;;;10.50;99.90;;;;;;5002319;28;20038;-80
2023/10/27 00:32:43;;;;;;;29.80;21.58;;;10.50;99.90;;;;;;5006745;28;20043;-79
2023/10/27 00:35:09;;;;;;;28.13;20.55;;;10.50;99.90;;;;;;5034633;28;20489;-80
2023/10/27 00:37:36;;;;;;;28.73;20.10;;;10.40;99.90;;;;;;5113778;27;20066;-80
2023/10/27 00:40:03;;;;;;;28.48;20.67;;;10.50;99.90;;;;;;5024197;28;20034;-80
2023/10/27 00:42:29;;;;;;;25.75;19.70;;;10.40;99.90;;;;;;5003625;28;20066;-80
2023/10/27 00:44:55;;;;;;;27.85;20.63;;;10.40;99.90;;;;;;5014400;28;20503;-80
2023/10/27 00:47:20;;;;;;;28.02;19.95;;;10.40;99.90;;;;;;5011797;28;22286;-79
2023/10/27 00:49:47;;;;;;;30.38;22.13;;;10.40;99.90;;;;;;5017299;28;20064;-80
2023/10/27 00:52:13;;;;;;;27.48;20.77;;;10.30;99.90;;;;;;5004062;28;20120;-80
2023/10/27 00:54:40;;;;;;;28.83;19.75;;;10.30;99.90;;;;;;5029891;28;20043;-80
2023/10/27 00:57:07;;;;;;;27.45;21.23;;;10.30;99.90;;;;;;5025118;28;20084;-79
2023/10/27 00:59:34;;;;;;;27.73;20.00;;;10.30;99.90;;;;;;5021234;28;20389;-80
2023/10/27 01:01:59;;;;;;;30.17;20.88;;;10.30;99.90;;;;;;5021693;28;20106;-80
2023/10/27 01:04:25;;;;;;;28.25;19.48;;;10.30;99.90;;;;;;5019175;28;20138;-80
2023/10/27 01:06:52;;;;;;;32.72;20.95;;;10.30;99.90;;;;;;4995113;28;20133;-80
2023/10/27 01:09:18;;;;;;;26.23;19.42;;;10.30;99.90;;;;;;5036521;28;20038;-80
2023/10/27 01:11:45;;;;;;;28.10;20.20;;;10.30;99.90;;;;;;5040986;28;20121;-80
2023/10/27 01:14:10;;;;;;;28.23;21.08;;;10.20;99.90;;;;;;5015676;28;20155;-80
2023/10/27 01:16:36;;;;;;;30.00;20.02;;;10.30;99.90;;;;;;5005056;28;20198;-80
2023/10/27 01:19:02;;;;;;;27.70;19.75;;;10.30;99.90;;;;;;5026691;28;20053;-80
2023/10/27 01:21:28;;;;;;;26.95;19.38;;;10.30;99.90;;;;;;5016892;28;20121;-80
2023/10/27 01:23:54;;;;;;;29.27;22.13;;;10.30;99.90;;;;;;5125823;27;20451;-79
2023/10/27 01:26:19;;;;;;;29.65;21.27;;;10.30;99.90;;;;;;5008613;28;20038;-80
2023/10/27 01:28:45;;;;;;;31.02;22.30;;;10.30;99.90;;;;;;4996584;28;20073;-79
2023/10/27 01:31:10;;;;;;;31.15;20.92;;;10.30;99.90;;;;;;5004238;28;20042;-79
2023/10/27 01:33:37;;;;;;;29.92;21.15;;;10.40;99.90;;;;;;5033904;28;20058;-79
2023/10/27 01:36:03;;;;;;;30.00;19.73;;;10.30;99.90;;;;;;5014777;28;20041;-79
2023/10/27 01:38:29;;;;;;;31.67;21.50;;;10.40;99.90;;;;;;5007123;28;20116;-80
2023/10/27 01:40:54;;;;;;;32.50;21.75;;;10.30;99.90;;;;;;5096253;27;20401;-79
2023/10/27 01:43:20;;;;;;;34.13;27.10;;;10.30;99.90;;;;;;5109656;27;20057;-79
2023/10/27 01:45:45;;;;;;;30.38;19.85;;;10.30;99.90;;;;;;4989379;28;20755;-79
2023/10/27 01:48:11;;;;;;;30.85;20.23;;;10.30;99.90;;;;;;5023177;28;20464;-79
2023/10/27 01:50:37;;;;;;;29.42;20.75;;;10.30;99.90;;;;;;4995944;28;20060;-79
2023/10/27 01:53:02;;;;;;;31.90;21.67;;;10.30;99.90;;;;;;5009875;28;20125;-79
2023/10/27 01:55:29;;;;;;;31.00;21.02;;;10.30;99.90;;;;;;5003932;28;20553;-79
2023/10/27 01:57:55;;;;;;;33.17;21.42;;;10.30;99.90;;;;;;5009703;28;20043;-79
2023/10/27 02:00:20;;;;;;;29.17;22.02;;;10.30;99.90;;;;;;5006735;28;20039;-79
2023/10/27 02:02:46;;;;;;;30.40;22.25;;;10.30;99.90;;;;;;4997082;28;20482;-79
2023/10/27 02:05:12;;;;;;;29.40;20.95;;;10.30;99.90;;;;;;5000494;28;20070;-79
2023/10/27 02:07:38;;;;;;;29.98;19.90;;;10.30;99.90;;;;;;5003316;28;20088;-79
2023/10/27 02:10:05;;;;;;;31.05;20.90;;;10.30;99.90;;;;;;5008903;28;20050;-79
2023/10/27 02:12:30;;;;;;;29.92;19.75;;;10.40;99.90;;;;;;5006236;28;20078;-79
2023/10/27 02:14:56;;;;;;;32.33;21.58;;;10.40;99.90;;;;;;5096643;27;20498;-79
2023/10/27 02:17:21;;;;;;;33.58;21.02;;;10.40;99.90;;;;;;5003305;28;20042;-79
2023/10/27 02:19:47;;;;;;;31.38;23.20;;;10.30;99.90;;;;;;5095779;27;20046;-79
2023/10/27 02:22:13;;;;;;;33.50;21.77;;;10.40;99.90;;;;;;4992393;28;20656;-79
2023/10/27 02:24:40;;;;;;;34.35;20.73;;;10.40;99.90;;;;;;5004391;28;20073;-79
2023/10/27 02:27:06;;;;;;;30.90;19.93;;;10.40;99.90;;;;;;5006477;28;20075;-79
2023/10/27 02:29:32;;;;;;;27.30;20.48;;;10.40;99.90;;;;;;5002177;28;20312;-79
2023/10/27 02:31:58;;;;;;;33.58;21.60;;;10.40;99.90;;;;;;4994461;28;20567;-78
2023/10/27 02:34:24;;;;;;;28.83;19.63;;;10.40;99.90;;;;;;4991064;28;20058;-79
2023/10/27 02:36:50;;;;;;;29.75;20.60;;;10.40;99.90;;;;;;5090322;27;20045;-79
2023/10/27 02:39:15;;;;;;;28.50;20.70;;;10.40;99.90;;;;;;5003249;28;20047;-79
2023/10/27 02:41:41;;;;;;;28.42;18.52;;;10.40;99.90;;;;;;5101622;27;20093;-79
2023/10/27 02:44:08;;;;;;;27.17;19.63;;;10.40;99.90;;;;;;4992809;28;20051;-79
2023/10/27 02:46:35;;;;;;;26.20;19.00;;;10.40;99.90;;;;;;4996620;28;20048;-78
2023/10/27 02:49:04;;;;;;;26.55;17.73;;;10.40;99.90;;;;;;4989851;28;20047;-79
2023/10/27 02:51:31;;;;;;;26.02;18.92;;;10.40;99.90;;;;;;4994236;28;20547;-79
2023/10/27 02:53:57;;;;;;;27.00;18.45;;;10.40;99.90;;;;;;5004794;28;20049;-79
2023/10/27 02:56:23;;;;;;;26.08;18.13;;;10.40;99.90;;;;;;4987186;28;20100;-79
2023/10/27 02:58:49;;;;;;;26.45;18.98;;;10.40;99.90;;;;;;4999746;28;20057;-79
2023/10/27 03:01:15;;;;;;;26.17;18.58;;;10.40;99.90;;;;;;5005211;28;20066;-79
2023/10/27 03:03:44;;;;;;;24.35;18.67;;;10.40;99.90;;;;;;5095267;27;20081;-79
2023/10/27 03:06:11;;;;;;;25.75;17.95;;;10.30;99.90;;;;;;4993900;28;20034;-79
2023/10/27 03:08:38;;;;;;;26.85;17.80;;;10.30;99.90;;;;;;5096331;27;20107;-79
2023/10/27 03:11:05;;;;;;;26.17;22.60;;;10.30;99.90;;;;;;4998456;28;20077;-79
2023/10/27 03:13:31;;;;;;;26.75;18.88;;;10.30;99.90;;;;;;4998430;28;20377;-79
2023/10/27 03:16:01;;;;;;;27.08;18.80;;;10.30;99.90;;;;;;5003883;28;20048;-79
2023/10/27 03:18:27;;;;;;;28.23;18.70;;;10.30;99.90;;;;;;4997015;28;20409;-79
2023/10/27 03:20:57;;;;;;;26.08;19.25;;;10.30;99.90;;;;;;4987012;28;20493;-79
2023/10/27 03:23:24;;;;;;;28.35;19.73;;;10.30;99.90;;;;;;5006669;28;20550;-79
2023/10/27 03:25:50;;;;;;;26.17;18.52;;;10.30;99.90;;;;;;4999303;28;20045;-79
2023/10/27 03:28:16;;;;;;;25.77;18.63;;;10.30;99.90;;;;;;4998682;28;20105;-79
2023/10/27 03:30:42;;;;;;;26.95;19.13;;;10.30;99.90;;;;;;4990471;28;20130;-79
2023/10/27 03:33:08;;;;;;;25.35;18.52;;;10.30;99.90;;;;;;5097305;27;20081;-79
2023/10/27 03:35:34;;;;;;;25.30;18.38;;;10.30;99.90;;;;;;5009907;28;20046;-75
2023/10/27 03:38:00;;;;;;;23.48;18.50;;;10.30;99.90;;;;;;4995123;28;20156;-75
2023/10/27 03:40:26;;;;;;;26.20;19.05;;;10.30;99.90;;;;;;4992529;28;20121;-75
2023/10/27 03:42:51;;;;;;;26.73;17.73;;;10.30;99.90;;;;;;4987838;28;20046;-74
2023/10/27 03:45:17;;;;;;;27.60;17.85;;;10.30;99.90;;;;;;4990260;28;20050;-75
2023/10/27 03:47:42;;;;;;;25.33;17.45;;;10.30;99.90;;;;;;4992847;28;20054;-75
2023/10/27 03:50:08;;;;;;;23.42;18.15;;;10.30;99.90;;;;;;5010682;28;20077;-75
2023/10/27 03:52:34;;;;;;;25.55;17.88;;;10.30;99.90;;;;;;4996431;28;20038;-75
2023/10/27 03:55:00;;;;;;;26.00;18.15;;;10.30;99.90;;;;;;4990353;28;20064;-75
2023/10/27 03:57:25;;;;;;;24.95;18.38;;;10.30;99.90;;;;;;4986821;28;20137;-75
2023/10/27 03:59:51;;;;;;;24.92;16.77;;;10.30;99.90;;;;;;4993180;28;20058;-75
2023/10/27 04:02:17;;;;;;;27.05;17.85;;;10.20;99.90;;;;;;4993364;28;20077;-75
2023/10/27 04:04:42;;;;;;;26.08;17.80;;;10.20;99.90;;;;;;4988315;28;20038;-75
2023/10/27 04:07:08;;;;;;;23.58;16.80;;;10.20;99.90;;;;;;4988350;28;20054;-75
2023/10/27 04:09:34;;;;;;;24.08;17.67;;;10.20;99.90;;;;;;5004273;28;20379;-75
2023/10/27 04:11:59;;;;;;;23.67;17.08;;;10.20;99.90;;;;;;5098821;27;20405;-75
2023/10/27 04:14:25;;;;;;;25.20;17.90;;;10.20;99.90;;;;;;4983763;28;20074;-75
2023/10/27 04:16:51;;;;;;;25.80;16.95;;;10.20;99.90;;;;;;4997500;28;20564;-75
2023/10/27 04:19:17;;;;;;;26.30;18.05;;;10.20;99.90;;;;;;4993207;28;20102;-75
2023/10/27 04:21:42;;;;;;;28.17;17.45;;;10.20;99.90;;;;;;4990326;28;20084;-75
2023/10/27 04:24:08;;;;;;;28.45;17.70;;;10.20;99.90;;;;;;4995230;28;20046;-75
2023/10/27 04:26:35;;;;;;;28.38;17.98;;;10.10;99.90;;;;;;5111456;27;20038;-75
2023/10/27 04:29:00;;;;;;;26.30;17.13;;;10.10;99.90;;;;;;5000757;28;20042;-75
2023/10/27 04:31:26;;;;;;;28.67;19.27;;;10.20;99.90;;;;;;4988130;28;20050;-75
2023/10/27 04:33:52;;;;;;;26.80;20.15;;;10.10;99.90;;;;;;4994316;28;20078;-75
2023/10/27 04:36:18;;;;;;;28.02;17.95;;;10.20;99.90;;;;;;4993528;28;20038;-75
2023/10/27 04:38:44;;;;;;;27.92;19.05;;;10.20;99.90;;;;;;5007761;28;20121;-75
2023/10/27 04:41:11;;;;;;;29.48;20.17;;;10.10;99.90;;;;;;5117790;27;20779;-75
2023/10/27 04:43:36;;;;;;;30.80;21.05;;;10.20;99.90;;;;;;4997375;28;20472;-75
2023/10/27 04:46:02;;;;;;;30.83;20.88;;;10.10;99.90;;;;;;5004485;28;20134;-75
2023/10/27 04:48:28;;;;;;;32.63;20.42;;;10.10;99.90;;;;;;5002415;28;20045;-75
2023/10/27 04:51:03;;;;;;;34.30;21.27;;;10.10;99.90;;;;;;5102020;27;20055;-75
2023/10/27 04:53:32;;;;;;;32.88;21.23;;;10.10;99.90;;;;;;4997254;28;20443;-75
2023/10/27 04:55:57;;;;;;;33.67;21.27;;;10.20;99.90;;;;;;5012032;28;20137;-75
2023/10/27 04:58:24;;;;;;;31.58;21.10;;;10.10;99.90;;;;;;5107503;27;20168;-75
2023/10/27 05:00:50;;;;;;;30.10;19.97;;;10.10;99.90;;;;;;5004056;28;20049;-75
2023/10/27 05:03:16;;;;;;;30.30;19.95;;;10.20;99.90;;;;;;4996697;28;20051;-75
2023/10/27 05:05:42;;;;;;;30.35;20.90;;;10.10;99.90;;;;;;4997210;28;20065;-75
2023/10/27 05:08:07;;;;;;;29.45;20.83;;;10.10;99.90;;;;;;4996033;28;20069;-75
2023/10/27 05:10:33;;;;;;;31.98;21.90;;;10.10;99.90;;;;;;5006349;28;20049;-75
2023/10/27 05:12:59;;;;;;;30.63;20.83;;;10.20;99.90;;;;;;5092507;27;20054;-75
2023/10/27 05:15:25;;;;;;;31.80;20.65;;;10.10;99.90;;;;;;4999816;28;20659;-75
2023/10/27 05:17:51;;;;;;;31.63;20.40;;;10.10;99.90;;;;;;4991173;28;20096;-75
2023/10/27 05:20:17;;;;;;;30.15;21.45;;;10.10;99.90;;;;;;4993573;28;20450;-79
2023/10/27 05:22:43;;;;;;;29.08;21.27;;;10.10;99.90;;;;;;5000059;28;20042;-79
2023/10/27 05:25:09;;;;;;;30.17;20.15;;;10.10;99.90;;;;;;5003130;28;20049;-79
2023/10/27 05:27:34;;;;;;;31.52;20.35;;;10.10;99.90;;;;;;4988466;28;20051;-79
2023/10/27 05:30:01;;;;;;;31.67;20.05;;;10.10;99.90;;;;;;5100670;27;20249;-79
2023/10/27 05:32:26;;;;;;;32.80;21.35;;;10.10;99.90;;;;;;4996038;28;20057;-79
2023/10/27 05:34:53;;;;;;;33.15;20.98;;;10.00;99.90;;;;;;5000533;28;20039;-79
2023/10/27 05:37:20;;;;;;;28.77;19.27;;;10.10;99.90;;;;;;5009557;28;20125;-79
2023/10/27 05:39:46;;;;;;;30.00;20.75;;;10.10;99.90;;;;;;5015108;28;20124;-79
2023/10/27 05:42:13;;;;;;;30.15;20.30;;;10.00;99.90;;;;;;5013085;28;20476;-79
2023/10/27 05:44:41;;;;;;;32.22;19.90;;;10.00;99.90;;;;;;5016939;28;20829;-79
2023/10/27 05:47:06;;;;;;;;;;;10.00;99.90;;;;;;4995983;28;20821;-79
2023/10/27 05:49:32;;;;;;;30.15;18.90;;;10.00;99.90;;;;;;5000404;28;19932;-80
2023/10/27 05:52:02;;;;;;;28.83;18.98;;;10.00;99.90;;;;;;4992608;28;20080;-79
2023/10/27 05:54:29;;;;;;;28.30;18.88;;;10.00;99.90;;;;;;4998281;28;20145;-80
2023/10/27 05:56:55;;;;;;;27.87;19.07;;;10.00;99.90;;;;;;5005566;28;20057;-79
2023/10/27 05:59:21;;;;;;;30.60;19.17;;;10.00;99.90;;;;;;5005506;28;20317;-79
2023/10/27 06:01:48;;;;;;;28.00;18.40;;;10.00;99.90;;;;;;4994203;28;20057;-79
2023/10/27 06:04:15;;;;;;;31.10;19.67;;;10.00;99.90;;;;;;5105843;27;20050;-75
2023/10/27 06:06:40;;;;;;;27.35;18.52;;;9.80;99.90;;;;;;4994445;28;20432;-75
2023/10/27 06:09:06;;;;;;;30.48;19.77;;;9.90;99.90;;;;;;4996283;28;20076;-77
2023/10/27 06:11:32;;;;;;;29.48;18.88;;;9.90;99.90;;;;;;5000508;28;20042;-76
2023/10/27 06:13:58;;;;;;;31.75;19.55;;;9.90;99.90;;;;;;4995847;28;20073;-77
2023/10/27 06:16:24;;;;;;;28.42;19.25;;;9.90;99.90;;;;;;5002508;28;20041;-76
2023/10/27 06:18:52;;;;;;;30.75;19.42;;;9.90;99.90;;;;;;4989719;28;20150;-77
2023/10/27 06:21:18;;;;;;;30.08;19.67;;;9.90;99.90;;;;;;4995475;28;21020;-74
2023/10/27 06:23:44;;;;;;;31.60;19.45;;;9.90;99.90;;;;;;5010360;28;20041;-75
2023/10/27 06:26:10;;;;;;;34.85;20.48;;;9.90;99.90;;;;;;4999267;28;20091;-75
2023/10/27 06:28:36;;;;;;;31.13;20.33;;;9.90;99.90;;;;;;5007183;28;20596;-79
2023/10/27 06:31:03;;;;;;;32.42;19.45;;;10.00;99.90;;;;;;4999436;28;20091;-79
2023/10/27 06:33:32;;;;;;;28.40;18.88;;;10.00;99.90;;;;;;5010117;28;20042;-83
2023/10/27 06:35:59;;;;;;;30.42;20.80;;;9.90;99.90;;;;;;5010170;28;20053;-82
2023/10/27 06:38:25;;;;;;;27.45;18.98;;;10.00;99.90;;;;;;5005390;28;20042;-81
2023/10/27 06:40:51;;;;;;;25.50;18.30;;;10.00;99.90;;;;;;5008020;28;20044;-81
2023/10/27 06:43:16;;;;;;;31.50;21.20;;;10.00;99.90;;;;;;5002411;28;20041;-81
2023/10/27 06:45:42;;;;;;;29.95;19.50;;;10.00;99.90;;;;;;5010829;28;20089;-81
2023/10/27 06:48:08;;;;;;;29.90;19.52;;;9.90;99.90;;;;;;5111697;27;20054;-81
2023/10/27 06:50:33;;;;;;;32.28;20.52;;;10.00;99.90;;;;;;5009791;28;20084;-81
2023/10/27 06:52:59;;;;;;;30.85;20.50;;;9.90;99.90;;;;;;5017976;28;20145;-82
2023/10/27 06:55:25;;;;;;;30.73;19.45;;;10.00;99.90;;;;;;5011016;28;20073;-81
2023/10/27 06:57:50;;;;;;;30.13;19.65;;;10.00;99.90;;;;;;5018559;28;20042;-81
2023/10/27 07:00:16;;;;;;;29.80;19.67;;;10.00;99.90;;;;;;5118099;27;20125;-81
2023/10/27 07:02:42;;;;;;;28.65;18.27;;;10.00;99.90;;;;;;5014110;28;20381;-81
2023/10/27 07:05:11;;;;;;;29.08;19.88;;;10.00;99.90;;;;;;5011512;28;20091;-81
2023/10/27 07:07:36;;;;;;;27.65;19.65;;;10.00;99.90;;;;;;4999976;28;20515;-81
2023/10/27 07:10:04;;;;;;;28.67;18.58;;;10.00;99.90;;;;;;5004093;28;20094;-80
2023/10/27 07:12:30;;;;;;;28.55;19.50;;;10.00;99.90;;;;;;5019976;28;20038;-80
2023/10/27 07:14:56;;;;;;;29.35;19.88;;;10.00;99.90;;;;;;5009015;28;20527;-85
2023/10/27 07:17:22;;;;;;;29.25;19.92;;;10.00;99.90;;;;;;5005444;28;20042;-86
2023/10/27 07:19:48;;;;;;;28.47;17.87;;;10.10;99.90;;;;;;5003050;28;20042;-80
2023/10/27 07:22:14;;;;;;;31.90;18.98;;;10.00;99.90;;;;;;4994987;28;20424;-79
2023/10/27 07:24:39;;;;;;;28.92;18.90;;;10.00;99.90;;;;;;4990131;28;20064;-76
2023/10/27 07:27:05;;;;;;;29.67;19.60;;;10.00;99.90;;;;;;4998223;28;20054;-81
2023/10/27 07:29:31;;;;;;;27.13;18.50;;;10.00;99.90;;;;;;5004637;28;20049;-83
2023/10/27 07:31:57;;;;;;;27.02;18.55;;;10.00;99.90;;;;;;4999223;28;20058;-81
2023/10/27 07:34:23;;;;;;;30.15;19.27;;;10.00;99.90;;;;;;5099514;27;20107;-78
2023/10/27 07:36:48;;;;;;;26.85;18.95;;;10.00;99.90;;;;;;4986563;28;20577;-79
2023/10/27 07:39:14;;;;;;;27.77;18.70;;;10.10;99.90;;;;;;5004426;28;20057;-79
2023/10/27 07:41:40;;;;;;;29.80;20.13;;;10.00;99.90;;;;;;4984203;28;20072;-80
2023/10/27 07:44:05;;;;;;;31.23;19.92;;;10.10;99.90;;;;;;4994089;28;20516;-80
2023/10/27 07:46:31;;;;;;;28.55;19.48;;;10.10;99.90;;;;;;4991380;28;20048;-82
2023/10/27 07:48:57;;;;;;;30.45;21.27;;;10.10;99.90;;;;;;4989166;28;20122;-80
2023/10/27 07:51:23;;;;;;;27.73;18.73;;;10.10;99.90;;;;;;4990499;28;20049;-79
2023/10/27 07:53:49;;;;;;;29.73;19.50;;;10.10;99.90;;;;;;4999544;28;20046;-81
2023/10/27 07:56:16;;;;;;;28.25;19.90;;;10.10;99.90;;;;;;4991310;28;20051;-76
2023/10/27 07:58:42;;;;;;;28.50;19.40;;;10.10;99.90;;;;;;5012788;28;20046;-81
2023/10/27 08:01:08;;;;;;;25.52;17.95;;;10.10;99.90;;;;;;4987462;28;20041;-83
2023/10/27 08:03:38;;;;;;;25.85;18.33;;;10.10;99.90;;;;;;5003399;28;20705;-82
2023/10/27 08:06:08;;;;;;;25.67;18.27;;;10.10;99.90;;;;;;4999521;28;20046;-83
2023/10/27 08:08:35;;;;;;;25.23;18.20;;;10.20;99.90;;;;;;5098088;27;20401;-82
2023/10/27 08:11:00;;;;;;;25.80;16.52;;;10.20;99.90;;;;;;4989900;28;20131;-81
2023/10/27 08:13:26;;;;;;;24.35;17.75;;;10.20;99.90;;;;;;4998553;28;20650;-84
2023/10/27 08:15:53;;;;;;;27.55;18.20;;;10.10;99.90;;;;;;5000887;28;20052;-81
2023/10/27 08:18:18;;;;;;;29.35;19.55;;;10.20;99.90;;;;;;4993330;28;20050;-80
2023/10/27 08:20:44;;;;;;;26.13;18.63;;;10.20;99.90;;;;;;5009313;28;20097;-84
2023/10/27 08:23:10;;;;;;;27.15;18.77;;;10.20;99.90;;;;;;4992783;28;20134;-84
2023/10/27 08:25:36;;;;;;;26.60;19.67;;;10.20;99.90;;;;;;5009347;28;20038;-83
2023/10/27 08:28:03;;;;;;;27.67;18.45;;;10.20;99.90;;;;;;5002449;28;20052;-81
2023/10/27 08:30:29;;;;;;;28.70;19.15;;;10.30;99.90;;;;;;5007412;28;20392;-79
2023/10/27 08:32:55;;;;;;;28.98;19.10;;;10.30;99.90;;;;;;5003972;28;20054;-85
2023/10/27 08:35:21;;;;;;;28.42;19.20;;;10.30;99.90;;;;;;4996624;28;20136;-81
2023/10/27 08:37:47;;;;;;;28.58;19.25;;;10.30;99.90;;;;;;5102998;27;20146;-83
2023/10/27 08:40:13;;;;;;;30.00;19.25;;;10.30;99.90;;;;;;5008897;28;20046;-80
2023/10/27 08:42:42;;;;;;;28.02;18.77;;;10.30;99.90;;;;;;5108038;27;20050;-82
2023/10/27 08:45:08;;;;;;;28.50;19.95;;;10.20;99.90;;;;;;4995438;28;20154;-81
2023/10/27 08:47:36;;;;;;;28.15;18.20;;;10.30;99.90;;;;;;5011614;28;20041;-86
2023/10/27 08:50:04;;;;;;;27.20;18.98;;;10.30;99.90;;;;;;5106792;27;20057;-84
2023/10/27 08:52:33;;;;;;;27.80;18.55;;;10.30;99.90;;;;;;5007475;28;20035;-85
2023/10/27 08:55:07;;;;;;;28.77;18.13;;;10.40;99.90;;;;;;4995364;28;20044;-85
2023/10/27 08:57:33;;;;;;;27.08;18.60;;;10.40;99.90;;;;;;4994470;28;20081;-85
2023/10/27 08:59:58;;;;;;;26.65;18.73;;;10.40;99.90;;;;;;4989724;28;20086;-85
2023/10/27 09:02:30;;;;;;;25.40;18.75;;;10.40;99.90;;;;;;4991846;28;20860;-86
2023/10/27 09:05:01;;;;;;;25.10;18.52;;;10.40;99.90;;;;;;4993761;28;20134;-84
2023/10/27 09:07:26;;;;;;;25.73;17.90;;;10.40;99.90;;;;;;5005679;28;20046;-82
2023/10/27 09:09:52;;;;;;;27.10;18.67;;;10.40;99.90;;;;;;5012143;28;20098;-78
2023/10/27 09:12:29;;;;;;;26.27;18.60;;;10.40;99.90;;;;;;5002606;28;20098;-79
2023/10/27 09:15:21;;;;;;;26.73;18.92;;;10.40;99.90;;;;;;5003480;28;20397;-80
2023/10/27 09:17:57;;;;;;;28.70;18.80;;;10.40;99.90;;;;;;5000195;28;20088;-80
2023/10/27 09:20:24;;;;;;;26.98;17.65;;;10.40;99.90;;;;;;5097348;27;20046;-78
2023/10/27 09:23:02;;;;;;;26.27;17.88;;;10.40;99.90;;;;;;5004174;28;20046;-79
2023/10/27 09:25:33;;;;;;;28.15;19.20;;;10.50;99.90;;;;;;5005576;28;20125;-84
2023/10/27 09:28:03;;;;;;;28.10;20.15;;;10.50;99.90;;;;;;5000973;28;20212;-85
2023/10/27 09:30:34;;;;;;;28.77;18.65;;;10.50;99.90;;;;;;4993027;28;20127;-83
2023/10/27 09:33:16;;;;;;;27.45;18.00;;;10.50;99.90;;;;;;4998916;28;20046;-77
2023/10/27 09:35:42;;;;;;;27.25;18.75;;;10.50;99.90;;;;;;4993877;28;20117;-80
2023/10/27 09:38:08;;;;;;;28.73;19.83;;;10.50;99.90;;;;;;5012388;28;20058;-77
2023/10/27 09:40:36;;;;;;;28.60;20.02;;;10.50;99.90;;;;;;5004876;28;20034;-73
2023/10/27 09:43:02;;;;;;;29.20;18.67;;;10.50;99.90;;;;;;4985668;28;20053;-77
2023/10/27 09:45:32;;;;;;;29.75;20.77;;;10.50;99.90;;;;;;5002142;28;20552;-78
2023/10/27 09:48:05;;;;;;;28.55;19.42;;;10.50;99.90;;;;;;5008916;28;20114;-77
2023/10/27 09:50:32;;;;;;;28.85;18.77;;;10.50;99.90;;;;;;5004283;28;20062;-75
2023/10/27 09:52:59;;;;;;;27.55;19.38;;;10.50;99.90;;;;;;5013156;28;20049;-77
2023/10/27 09:55:28;;;;;;;;;;;10.50;99.90;;;;;;5000476;28;20050;-79
2023/10/27 09:57:55;;;;;;;27.85;17.48;;;10.50;99.90;;;;;;5009724;28;19926;-75
2023/10/27 10:00:25;;;;;;;26.92;18.38;;;10.50;99.90;;;;;;5000408;28;20047;-74
2023/10/27 10:02:51;;;;;;;27.83;18.60;;;10.60;99.90;;;;;;5089527;27;20053;-78
2023/10/27 10:05:17;;;;;;;27.60;19.50;;;10.60;99.90;;;;;;4998060;28;20039;-74
2023/10/27 10:07:52;;;;;;;29.10;20.13;;;10.60;99.90;;;;;;5006370;28;20041;-83
2023/10/27 10:10:33;;;;;;;29.95;20.42;;;10.60;99.90;;;;;;5101652;27;20141;-81
2023/10/27 10:13:12;;;;;;;28.05;20.45;;;10.60;99.90;;;;;;4995511;28;20048;-80
2023/10/27 10:15:45;;;;;;;28.23;19.35;;;10.70;99.90;;;;;;5102877;27;20076;-83
2023/10/27 10:18:20;;;;;;;29.83;20.95;;;10.70;99.90;;;;;;5004088;28;20053;-80
2023/10/27 10:20:47;;;;;;;30.80;20.35;;;10.70;99.90;;;;;;5000497;28;20083;-79
2023/10/27 10:23:14;;;;;;;29.55;21.02;;;10.80;99.90;;;;;;4987592;28;20125;-81
2023/10/27 10:25:56;;;;;;;30.83;21.38;;;10.70;99.90;;;;;;4991925;28;20107;-78
2023/10/27 10:28:29;;;;;;;34.22;22.00;;;10.80;99.90;;;;;;5014414;28;20042;-77
2023/10/27 10:31:10;;;;;;;32.50;21.38;;;10.80;99.90;;;;;;5005487;28;20069;-79
2023/10/27 10:33:37;;;;;;;32.40;22.92;;;10.80;99.90;;;;;;5003810;28;20082;-77
2023/10/27 10:36:14;;;;;;;32.72;21.73;;;10.80;99.90;;;;;;4988365;28;20050;-74
2023/10/27 10:38:40;;;;;;;33.33;21.27;;;10.90;99.90;;;;;;5011247;28;20076;-81
2023/10/27 10:41:06;;;;;;;32.35;22.83;;;10.90;99.90;;;;;;5096727;27;20068;-81
2023/10/27 10:43:38;;;;;;;31.35;21.13;;;10.90;99.90;;;;;;4969110;28;20050;-83
2023/10/27 10:46:06;;;;;;;30.95;22.25;;;11.00;99.90;;;;;;4997037;28;20049;-81
2023/10/27 10:48:34;;;;;;;31.58;22.73;;;11.00;99.90;;;;;;5007615;28;20133;-78
2023/10/27 10:54:12;;;;;;;29.97;20.57;;;11.00;99.90;;;;;;4963974;28;20509;-78
2023/10/27 10:56:38;;;;;;;27.85;21.88;;;11.10;99.90;;;;;;4992628;28;20062;-77
2023/10/27 10:59:04;;;;;;;27.40;21.25;;;11.00;99.90;;;;;;5003188;28;20144;-76
2023/10/27 11:01:30;;;;;;;31.50;24.48;;;11.00;99.90;;;;;;4996938;28;20046;-80
2023/10/27 11:03:58;;;;;;;30.52;21.90;;;11.10;99.90;;;;;;5003797;28;20045;-81
2023/10/27 11:06:24;;;;;;;;;;;11.10;99.90;;;;;;5001764;28;20058;-84
2023/10/27 11:08:50;;;;;;;30.00;20.80;;;11.10;99.90;;;;;;4997621;28;19920;-86
2023/10/27 11:11:19;;;;;;;30.75;23.30;;;11.00;99.90;;;;;;4994653;28;20076;-85
2023/10/27 11:13:46;;;;;;;30.00;22.05;;;11.00;99.90;;;;;;4992650;28;21743;-86
2023/10/27 11:16:14;;;;;;;28.05;21.80;;;11.10;99.90;;;;;;4994366;28;20038;-82
2023/10/27 11:18:40;;;;;;;26.48;20.73;;;11.00;99.90;;;;;;4988870;28;20092;-83
2023/10/27 11:21:05;;;;;;;27.02;21.67;;;11.00;99.90;;;;;;5020004;28;20042;-83
2023/10/27 11:23:31;;;;;;;28.33;22.05;;;11.00;99.90;;;;;;5002548;28;20050;-83
2023/10/27 11:26:02;;;;;;;28.67;22.60;;;11.10;99.90;;;;;;5008369;28;20046;-85
2023/10/27 11:28:28;;;;;;;31.85;24.60;;;11.00;99.90;;;;;;4988544;28;20038;-84
2023/10/27 11:31:08;;;;;;;30.27;21.65;;;11.00;99.90;;;;;;5001939;28;20710;-81
2023/10/27 11:33:58;;;;;;;30.73;22.55;;;11.00;99.90;;;;;;5003881;28;20520;-78
2023/10/27 11:36:32;;;;;;;29.80;22.45;;;11.10;99.90;;;;;;5007739;28;20088;-84
2023/10/27 11:39:16;;;;;;;29.02;21.88;;;11.10;99.90;;;;;;4990420;28;20100;-80
2023/10/27 11:41:48;;;;;;;29.75;21.83;;;11.10;99.90;;;;;;5109772;27;20055;-79
2023/10/27 11:44:14;;;;;;;29.38;21.60;;;11.00;99.90;;;;;;4987064;28;20638;-79
2023/10/27 11:47:03;;;;;;;28.10;24.02;;;11.10;99.90;;;;;;4989317;28;20065;-81
2023/10/27 11:49:30;;;;;;;26.75;20.35;;;11.00;99.90;;;;;;5006296;28;20121;-81
2023/10/27 11:51:56;;;;;;;30.48;21.63;;;11.10;99.90;;;;;;5004870;28;20099;-78
2023/10/27 11:54:23;;;;;;;28.63;21.77;;;11.00;99.90;;;;;;4988017;28;20070;-82
2023/10/27 11:56:49;;;;;;;27.98;20.77;;;11.00;99.90;;;;;;4986490;28;20086;-80
2023/10/27 11:59:17;;;;;;;29.38;21.88;;;11.00;99.90;;;;;;4991680;28;20070;-83
2023/10/27 12:01:43;;;;;;;27.50;20.73;;;11.00;99.90;;;;;;5002148;28;20441;-82
2023/10/27 12:04:10;;;;;;;28.55;21.45;;;11.00;99.90;;;;;;4992938;28;20038;-82
2023/10/27 12:06:38;;;;;;;26.27;20.33;;;11.00;99.90;;;;;;4993640;28;20539;-81
2023/10/27 12:09:04;;;;;;;27.45;20.38;;;11.00;99.90;;;;;;5007012;28;20068;-79
2023/10/27 12:11:30;;;;;;;27.15;19.42;;;11.00;99.90;;;;;;5097826;27;20049;-80
2023/10/27 12:13:56;;;;;;;27.88;21.23;;;11.00;99.90;;;;;;4987510;28;20046;-80
2023/10/27 12:16:24;;;;;;;26.40;19.52;;;11.00;99.90;;;;;;4993502;28;20038;-79
2023/10/27 12:18:50;;;;;;;28.42;20.95;;;11.00;99.90;;;;;;5010021;28;20080;-81
2023/10/27 12:21:15;;;;;;;27.15;21.23;;;11.00;99.90;;;;;;4991573;28;20069;-82
2023/10/27 12:23:41;;;;;;;28.15;20.08;;;11.00;99.90;;;;;;5093531;28;20482;-82
2023/10/27 12:26:08;;;;;;;27.55;18.20;;;11.00;99.90;;;;;;4993547;28;20497;-81
2023/10/27 12:28:34;;;;;;;23.98;18.75;;;11.00;99.90;;;;;;5004130;28;20038;-80
2023/10/27 12:31:00;;;;;;;23.67;17.75;;;11.00;99.90;;;;;;4992717;28;20572;-80